Victor, MT (59875)

1:39 PM MDT on July 01, 2015 (GMT -0600)
MSU - Western Ag Research Center | | Change Station
CLOSE
Current Station
Personal Weather Station
Location: Corvallis, MT
Elevation: 3596 ft
Nearby Weather Stations

Elev 3596 ft 46.33 °N, 114.08 °W | Updated 1 second ago

Clear
Clear
92.1 °F
Feels Like 90 °F
N
0.0
Wind Variable Wind from NE
Gusts 4.0 mph

Today
High -- | Low -- °F
--% Chance of Precip.
Yesterday
High -- | Low -- °F
Precip. -- in
5:48 AM 9:32 PM
Full, 100% visible
Pressure 29.96 in
Visibility 10.0 miles
Clouds Clear
Heat Index 90 °F
Dew Point 54 °F
Humidity 28%
Rainfall 0.00 in
Snow Depth Not available.
UV out of 12
Pollen 5.70 out of 12
Air Quality Not available.
Flu Activity Not available.
METAR KMSO 011853Z 32010G16KT 10SM CLR 32/04 A3005 RMK AO2 SLP146 T03220044

More Conditions Fewer Conditions

Pressure 29.96 in
Visibility 10.0 miles
Clouds Clear
Heat Index 90 °F
Dew Point 54 °F
Humidity 28%
Rainfall 0.00 in
Snow Depth Not available.
UV out of 12
Pollen 5.70 out of 12
Air Quality Not available.
Flu Activity Not available.
METAR KMSO 011853Z 32010G16KT 10SM CLR 32/04 A3005 RMK AO2 SLP146 T03220044

More Conditions Fewer Conditions

10-Day Weather Forecast

×

Almanac

Astronomy

Jul. 01, 2015 Rise Set
Actual Time
Civil Twilight
Nautical Twilight
Astronomical Twilight
Moon
Length of Visible Light
Length of Day
Tomorrow will be .
, % of the Moon is Illuminated

Today's Extremes

State Highs State Lows

Community

WunderPhotos

Upload Photos

1,834,255 photos uploaded!

WunderBlogs® & News

Nearby

Air Quality

  Air Quality AQ Index Pollutant
Not available.

Snow Depth

Station Depth Elevation

Earthquake Activity

City Distance Mag. Time & Date
Minimum magnitude displayed is 2.5.

Coastal Water Temperatures

Place Temperature

Stations

Nearby Weather Stations

Station Location Temp. Windchill Dew Point Humidity Wind Precip. Elev Updated Type